sensor_id;sensor_type;location;lat;lon;timestamp;pressure;altitude;pressure_sealevel;temperature;humidity
64668;BME280;51077;42.716;23.344;2023-07-31T00:00:00;95024.06;;;24.57;52.91
64668;BME280;51077;42.716;23.344;2023-07-31T00:02:25;95027.50;;;24.56;52.87
64668;BME280;51077;42.716;23.344;2023-07-31T00:04:51;95026.78;;;24.55;52.88
64668;BME280;51077;42.716;23.344;2023-07-31T00:07:16;95025.28;;;24.54;52.95
64668;BME280;51077;42.716;23.344;2023-07-31T00:09:42;95028.72;;;24.53;52.95
64668;BME280;51077;42.716;23.344;2023-07-31T00:12:07;95022.25;;;24.50;53.00
64668;BME280;51077;42.716;23.344;2023-07-31T00:14:33;95029.94;;;24.50;53.19
64668;BME280;51077;42.716;23.344;2023-07-31T00:16:58;95030.66;;;24.50;53.02
64668;BME280;51077;42.716;23.344;2023-07-31T00:19:24;95030.66;;;24.50;53.32
64668;BME280;51077;42.716;23.344;2023-07-31T00:21:49;95017.97;;;24.49;53.19
64668;BME280;51077;42.716;23.344;2023-07-31T00:24:14;95027.75;;;24.48;53.28
64668;BME280;51077;42.716;23.344;2023-07-31T00:26:40;95020.78;;;24.49;53.17
64668;BME280;51077;42.716;23.344;2023-07-31T00:29:05;95012.28;;;24.47;53.18
64668;BME280;51077;42.716;23.344;2023-07-31T00:31:31;95013.00;;;24.48;53.22
64668;BME280;51077;42.716;23.344;2023-07-31T00:33:56;94998.25;;;24.47;53.35
64668;BME280;51077;42.716;23.344;2023-07-31T00:36:21;94988.34;;;24.46;53.48
64668;BME280;51077;42.716;23.344;2023-07-31T00:38:47;94988.34;;;24.46;53.57
64668;BME280;51077;42.716;23.344;2023-07-31T00:41:12;94982.00;;;24.46;53.66
64668;BME280;51077;42.716;23.344;2023-07-31T00:43:38;94988.97;;;24.45;53.55
64668;BME280;51077;42.716;23.344;2023-07-31T00:46:03;94988.25;;;24.44;53.59
64668;BME280;51077;42.716;23.344;2023-07-31T00:48:30;94994.47;;;24.43;53.80
64668;BME280;51077;42.716;23.344;2023-07-31T00:50:57;95000.69;;;24.41;53.88
64668;BME280;51077;42.716;23.344;2023-07-31T00:53:23;95001.91;;;24.38;54.02
64668;BME280;51077;42.716;23.344;2023-07-31T00:55:50;94991.88;;;24.35;54.08
64668;BME280;51077;42.716;23.344;2023-07-31T00:58:15;94992.47;;;24.33;54.23
64668;BME280;51077;42.716;23.344;2023-07-31T01:00:41;94981.16;;;24.31;54.32
64668;BME280;51077;42.716;23.344;2023-07-31T01:03:06;94980.28;;;24.29;54.49
64668;BME280;51077;42.716;23.344;2023-07-31T01:08:24;94974.34;;;24.23;54.70
64668;BME280;51077;42.716;23.344;2023-07-31T01:11:00;94979.09;;;24.20;54.93
64668;BME280;51077;42.716;23.344;2023-07-31T01:13:28;94981.06;;;24.18;55.01
64668;BME280;51077;42.716;23.344;2023-07-31T01:15:53;94979.47;;;24.15;55.09
64668;BME280;51077;42.716;23.344;2023-07-31T01:18:19;94974.34;;;24.11;55.34
64668;BME280;51077;42.716;23.344;2023-07-31T01:20:53;94972.03;;;24.07;55.45
64668;BME280;51077;42.716;23.344;2023-07-31T01:26:08;94969.47;;;24.00;55.87
64668;BME280;51077;42.716;23.344;2023-07-31T01:31:14;94963.50;;;23.94;56.21
64668;BME280;51077;42.716;23.344;2023-07-31T01:33:41;94961.78;;;23.89;56.31
64668;BME280;51077;42.716;23.344;2023-07-31T01:36:07;94961.69;;;23.87;56.51
64668;BME280;51077;42.716;23.344;2023-07-31T01:38:33;94962.16;;;23.83;56.83
64668;BME280;51077;42.716;23.344;2023-07-31T01:40:58;94966.91;;;23.80;56.69
64668;BME280;51077;42.716;23.344;2023-07-31T01:43:24;94961.06;;;23.76;56.66
64668;BME280;51077;42.716;23.344;2023-07-31T01:45:49;94960.22;;;23.74;56.83
64668;BME280;51077;42.716;23.344;2023-07-31T01:48:15;94965.69;;;23.72;57.21
64668;BME280;51077;42.716;23.344;2023-07-31T01:50:40;94964.13;;;23.69;57.06
64668;BME280;51077;42.716;23.344;2023-07-31T01:53:05;94966.66;;;23.65;57.40
64668;BME280;51077;42.716;23.344;2023-07-31T01:55:31;94972.84;;;23.63;57.36
64668;BME280;51077;42.716;23.344;2023-07-31T01:57:56;94978.34;;;23.61;57.43
64668;BME280;51077;42.716;23.344;2023-07-31T02:00:22;94971.84;;;23.58;57.68
64668;BME280;51077;42.716;23.344;2023-07-31T02:02:47;94974.53;;;23.56;57.56
64668;BME280;51077;42.716;23.344;2023-07-31T02:05:12;94975.75;;;23.53;57.78
64668;BME280;51077;42.716;23.344;2023-07-31T02:07:38;94985.50;;;23.52;57.65
64668;BME280;51077;42.716;23.344;2023-07-31T02:10:04;94982.56;;;23.50;57.74
64668;BME280;51077;42.716;23.344;2023-07-31T02:12:29;94975.50;;;23.49;57.95
64668;BME280;51077;42.716;23.344;2023-07-31T02:14:58;94985.97;;;23.49;58.08
64668;BME280;51077;42.716;23.344;2023-07-31T02:17:24;94985.88;;;23.47;58.29
64668;BME280;51077;42.716;23.344;2023-07-31T02:19:49;94986.44;;;23.45;58.09
64668;BME280;51077;42.716;23.344;2023-07-31T02:22:15;94980.84;;;23.45;58.15
64668;BME280;51077;42.716;23.344;2023-07-31T02:24:40;94977.94;;;23.43;58.36
64668;BME280;51077;42.716;23.344;2023-07-31T02:27:06;94984.88;;;23.42;58.36
64668;BME280;51077;42.716;23.344;2023-07-31T02:29:31;94979.13;;;23.40;58.45
64668;BME280;51077;42.716;23.344;2023-07-31T02:31:56;94981.22;;;23.40;58.52
64668;BME280;51077;42.716;23.344;2023-07-31T02:34:22;94984.00;;;23.40;58.50
64668;BME280;51077;42.716;23.344;2023-07-31T02:36:47;94981.81;;;23.38;58.69
64668;BME280;51077;42.716;23.344;2023-07-31T02:39:13;94977.69;;;23.39;58.68
64668;BME280;51077;42.716;23.344;2023-07-31T02:41:38;94981.06;;;23.38;58.78
64668;BME280;51077;42.716;23.344;2023-07-31T02:44:04;94981.06;;;23.38;58.64
64668;BME280;51077;42.716;23.344;2023-07-31T02:46:29;94980.34;;;23.37;58.89
64668;BME280;51077;42.716;23.344;2023-07-31T02:48:55;94994.50;;;23.39;58.79
64668;BME280;51077;42.716;23.344;2023-07-31T02:51:20;94991.53;;;23.37;58.95
64668;BME280;51077;42.716;23.344;2023-07-31T02:53:47;94995.84;;;23.38;59.09
64668;BME280;51077;42.716;23.344;2023-07-31T02:56:13;95002.16;;;23.39;59.08
64668;BME280;51077;42.716;23.344;2023-07-31T02:58:38;95008.50;;;23.39;59.22
64668;BME280;51077;42.716;23.344;2023-07-31T03:01:03;95012.03;;;23.40;59.00
64668;BME280;51077;42.716;23.344;2023-07-31T03:03:29;95012.88;;;23.42;59.17
64668;BME280;51077;42.716;23.344;2023-07-31T03:05:54;95008.75;;;23.43;59.07
64668;BME280;51077;42.716;23.344;2023-07-31T03:08:20;95015.81;;;23.44;59.16
64668;BME280;51077;42.716;23.344;2023-07-31T03:10:46;95009.59;;;23.46;59.02
64668;BME280;51077;42.716;23.344;2023-07-31T03:13:11;95010.31;;;23.46;59.26
64668;BME280;51077;42.716;23.344;2023-07-31T03:15:36;95015.34;;;23.48;59.23
64668;BME280;51077;42.716;23.344;2023-07-31T03:18:02;95014.72;;;23.49;59.08
64668;BME280;51077;42.716;23.344;2023-07-31T03:20:27;95021.78;;;23.50;59.07
64668;BME280;51077;42.716;23.344;2023-07-31T03:22:53;95017.53;;;23.49;59.37
64668;BME280;51077;42.716;23.344;2023-07-31T03:25:18;95023.13;;;23.49;59.41
64668;BME280;51077;42.716;23.344;2023-07-31T03:27:43;95012.06;;;23.51;59.33
64668;BME280;51077;42.716;23.344;2023-07-31T03:30:09;95012.06;;;23.51;59.28
64668;BME280;51077;42.716;23.344;2023-07-31T03:32:35;95019.72;;;23.51;59.24
64668;BME280;51077;42.716;23.344;2023-07-31T03:35:00;95026.78;;;23.52;59.31
64668;BME280;51077;42.716;23.344;2023-07-31T03:37:25;95030.31;;;23.52;59.47
64668;BME280;51077;42.716;23.344;2023-07-31T03:39:51;95031.78;;;23.53;58.90
64668;BME280;51077;42.716;23.344;2023-07-31T03:42:17;95026.91;;;23.54;58.30
64668;BME280;51077;42.716;23.344;2023-07-31T03:44:42;95025.56;;;23.55;58.58
64668;BME280;51077;42.716;23.344;2023-07-31T03:47:07;95026.31;;;23.55;58.66
64668;BME280;51077;42.716;23.344;2023-07-31T03:49:33;95034.72;;;23.55;58.78
64668;BME280;51077;42.716;23.344;2023-07-31T03:51:58;95029.84;;;23.56;58.97
64668;BME280;51077;42.716;23.344;2023-07-31T03:54:23;95036.91;;;23.57;59.09
64668;BME280;51077;42.716;23.344;2023-07-31T03:56:49;95027.88;;;23.58;59.03
64668;BME280;51077;42.716;23.344;2023-07-31T03:59:15;95037.03;;;23.59;58.99
64668;BME280;51077;42.716;23.344;2023-07-31T04:01:40;95043.34;;;23.59;58.95
64668;BME280;51077;42.716;23.344;2023-07-31T04:04:05;95036.28;;;23.58;59.06
64668;BME280;51077;42.716;23.344;2023-07-31T04:06:31;95041.31;;;23.60;59.14
64668;BME280;51077;42.716;23.344;2023-07-31T04:08:56;95046.91;;;23.60;59.12
64668;BME280;51077;42.716;23.344;2023-07-31T04:11:22;95046.28;;;23.62;59.17
64668;BME280;51077;42.716;23.344;2023-07-31T04:13:47;95044.22;;;23.62;59.31
64668;BME280;51077;42.716;23.344;2023-07-31T04:16:12;95044.94;;;23.63;59.38
64668;BME280;51077;42.716;23.344;2023-07-31T04:18:38;95047.94;;;23.65;59.10
64668;BME280;51077;42.716;23.344;2023-07-31T04:21:03;95050.72;;;23.65;59.33
64668;BME280;51077;42.716;23.344;2023-07-31T04:23:29;95050.84;;;23.67;59.20
64668;BME280;51077;42.716;23.344;2023-07-31T04:25:55;95043.31;;;23.69;59.06
64668;BME280;51077;42.716;23.344;2023-07-31T04:28:20;95053.16;;;23.70;59.22
64668;BME280;51077;42.716;23.344;2023-07-31T04:30:46;95055.25;;;23.70;59.23
64668;BME280;51077;42.716;23.344;2023-07-31T04:33:11;95060.97;;;23.72;59.17
64668;BME280;51077;42.716;23.344;2023-07-31T04:35:37;95065.25;;;23.73;59.15
64668;BME280;51077;42.716;23.344;2023-07-31T04:38:02;95065.97;;;23.73;59.09
64668;BME280;51077;42.716;23.344;2023-07-31T04:40:27;95065.97;;;23.73;59.14
64668;BME280;51077;42.716;23.344;2023-07-31T04:42:53;95059.75;;;23.75;59.13
64668;BME280;51077;42.716;23.344;2023-07-31T04:45:18;95062.66;;;23.77;58.86
64668;BME280;51077;42.716;23.344;2023-07-31T04:47:44;95055.03;;;23.77;58.81
64668;BME280;51077;42.716;23.344;2023-07-31T04:50:09;95064.28;;;23.80;58.87
64668;BME280;51077;42.716;23.344;2023-07-31T04:52:35;95057.47;;;23.83;58.78
64668;BME280;51077;42.716;23.344;2023-07-31T04:55:00;95062.44;;;23.85;58.82
64668;BME280;51077;42.716;23.344;2023-07-31T04:57:25;95064.66;;;23.86;58.76
64668;BME280;51077;42.716;23.344;2023-07-31T04:59:51;95058.56;;;23.90;58.68
64668;BME280;51077;42.716;23.344;2023-07-31T05:02:16;95052.34;;;23.91;58.46
64668;BME280;51077;42.716;23.344;2023-07-31T05:04:42;95053.94;;;23.94;58.45
64668;BME280;51077;42.716;23.344;2023-07-31T05:07:07;95053.59;;;24.00;58.43
64668;BME280;51077;42.716;23.344;2023-07-31T05:09:33;95060.28;;;24.06;58.07
64668;BME280;51077;42.716;23.344;2023-07-31T05:11:58;95058.59;;;24.13;58.00
64668;BME280;51077;42.716;23.344;2023-07-31T05:14:25;95051.25;;;24.20;57.83
64668;BME280;51077;42.716;23.344;2023-07-31T05:16:51;95052.63;;;24.30;57.52
64668;BME280;51077;42.716;23.344;2023-07-31T05:19:16;95054.69;;;24.42;57.30
64668;BME280;51077;42.716;23.344;2023-07-31T05:21:41;95049.09;;;24.53;57.01
64668;BME280;51077;42.716;23.344;2023-07-31T05:24:07;95048.47;;;24.67;56.77
64668;BME280;51077;42.716;23.344;2023-07-31T05:26:32;95044.19;;;24.77;56.36
64668;BME280;51077;42.716;23.344;2023-07-31T05:28:58;95048.28;;;24.88;56.35
64668;BME280;51077;42.716;23.344;2023-07-31T05:31:23;95046.78;;;24.99;56.00
64668;BME280;51077;42.716;23.344;2023-07-31T05:33:50;95050.69;;;25.05;55.74
64668;BME280;51077;42.716;23.344;2023-07-31T05:36:16;95054.00;;;25.14;55.15
64668;BME280;51077;42.716;23.344;2023-07-31T05:38:41;95045.06;;;25.17;55.46
64668;BME280;51077;42.716;23.344;2023-07-31T05:41:09;95051.00;;;25.23;55.15
64668;BME280;51077;42.716;23.344;2023-07-31T05:43:35;95052.94;;;25.32;54.75
64668;BME280;51077;42.716;23.344;2023-07-31T05:46:00;95052.75;;;25.42;54.39
64668;BME280;51077;42.716;23.344;2023-07-31T05:48:26;95053.13;;;25.48;54.26
64668;BME280;51077;42.716;23.344;2023-07-31T05:50:52;95057.50;;;25.51;54.12
64668;BME280;51077;42.716;23.344;2023-07-31T05:53:17;95047.81;;;25.54;53.62
64668;BME280;51077;42.716;23.344;2023-07-31T05:55:43;95045.97;;;25.59;53.59
64668;BME280;51077;42.716;23.344;2023-07-31T05:58:08;95050.34;;;25.62;53.20
64668;BME280;51077;42.716;23.344;2023-07-31T06:00:33;95056.94;;;25.67;53.23
64668;BME280;51077;42.716;23.344;2023-07-31T06:02:59;95062.03;;;25.70;52.73
64668;BME280;51077;42.716;23.344;2023-07-31T06:05:24;95063.00;;;25.75;52.70
64668;BME280;51077;42.716;23.344;2023-07-31T06:07:51;95070.22;;;25.78;52.42
64668;BME280;51077;42.716;23.344;2023-07-31T06:10:16;95067.63;;;25.82;52.25
64668;BME280;51077;42.716;23.344;2023-07-31T06:12:41;95069.19;;;25.85;51.78
64668;BME280;51077;42.716;23.344;2023-07-31T06:15:07;95070.84;;;25.90;51.66
64668;BME280;51077;42.716;23.344;2023-07-31T06:17:32;95077.06;;;26.00;51.29
64668;BME280;51077;42.716;23.344;2023-07-31T06:19:58;95071.97;;;26.11;50.91
64668;BME280;51077;42.716;23.344;2023-07-31T06:22:23;95071.25;;;26.24;50.63
64668;BME280;51077;42.716;23.344;2023-07-31T06:24:49;95069.72;;;26.35;50.05
64668;BME280;51077;42.716;23.344;2023-07-31T06:27:14;95064.84;;;26.49;49.86
64668;BME280;51077;42.716;23.344;2023-07-31T06:29:39;95071.19;;;26.63;49.53
64668;BME280;51077;42.716;23.344;2023-07-31T06:32:06;95062.00;;;26.76;48.66
64668;BME280;51077;42.716;23.344;2023-07-31T06:34:31;95063.16;;;26.85;48.55
64668;BME280;51077;42.716;23.344;2023-07-31T06:36:57;95067.63;;;26.90;48.33
64668;BME280;51077;42.716;23.344;2023-07-31T06:39:22;95060.09;;;26.95;48.12
64668;BME280;51077;42.716;23.344;2023-07-31T06:41:48;95073.34;;;27.06;47.72
64668;BME280;51077;42.716;23.344;2023-07-31T06:44:13;95070.03;;;27.10;47.64
64668;BME280;51077;42.716;23.344;2023-07-31T06:46:39;95073.16;;;27.16;47.17
64668;BME280;51077;42.716;23.344;2023-07-31T06:49:04;95067.81;;;27.22;47.15
64668;BME280;51077;42.716;23.344;2023-07-31T06:51:30;95069.69;;;27.31;46.78
64668;BME280;51077;42.716;23.344;2023-07-31T06:53:57;95070.59;;;27.36;46.68
64668;BME280;51077;42.716;23.344;2023-07-31T06:56:23;95071.53;;;27.40;46.36
64668;BME280;51077;42.716;23.344;2023-07-31T06:58:48;95072.38;;;27.43;46.19
64668;BME280;51077;42.716;23.344;2023-07-31T07:01:14;95076.81;;;27.48;46.01
64668;BME280;51077;42.716;23.344;2023-07-31T07:03:39;95062.81;;;27.50;45.73
64668;BME280;51077;42.716;23.344;2023-07-31T07:06:05;95063.13;;;27.56;45.41
64668;BME280;51077;42.716;23.344;2023-07-31T07:08:30;95064.13;;;27.63;45.29
64668;BME280;51077;42.716;23.344;2023-07-31T07:10:55;95063.06;;;27.70;44.93
64668;BME280;51077;42.716;23.344;2023-07-31T07:13:21;95058.63;;;27.80;44.74
64668;BME280;51077;42.716;23.344;2023-07-31T07:15:50;95059.22;;;27.93;44.58
64668;BME280;51077;42.716;23.344;2023-07-31T07:18:17;95067.59;;;28.06;44.21
64668;BME280;51077;42.716;23.344;2023-07-31T07:20:53;95070.31;;;28.20;43.81
64668;BME280;51077;42.716;23.344;2023-07-31T07:23:19;95073.69;;;28.33;43.44
64668;BME280;51077;42.716;23.344;2023-07-31T07:25:45;95072.19;;;28.45;43.29
64668;BME280;51077;42.716;23.344;2023-07-31T07:28:10;95062.97;;;28.61;42.65
64668;BME280;51077;42.716;23.344;2023-07-31T07:30:36;95068.03;;;28.80;42.57
64668;BME280;51077;42.716;23.344;2023-07-31T07:33:01;95059.56;;;28.96;42.30
64668;BME280;51077;42.716;23.344;2023-07-31T07:35:27;95062.97;;;29.10;41.71
64668;BME280;51077;42.716;23.344;2023-07-31T07:37:52;95065.66;;;29.24;41.37
64668;BME280;51077;42.716;23.344;2023-07-31T07:40:19;95063.31;;;29.36;40.81
64668;BME280;51077;42.716;23.344;2023-07-31T07:42:44;95071.47;;;29.46;40.55
64668;BME280;51077;42.716;23.344;2023-07-31T07:45:10;95059.31;;;29.59;40.44
64668;BME280;51077;42.716;23.344;2023-07-31T07:47:35;95065.50;;;29.73;39.87
64668;BME280;51077;42.716;23.344;2023-07-31T07:50:00;95067.69;;;29.93;39.68
64668;BME280;51077;42.716;23.344;2023-07-31T07:52:26;95067.84;;;30.15;39.12
64668;BME280;51077;42.716;23.344;2023-07-31T07:54:51;95067.28;;;30.38;38.78
64668;BME280;51077;42.716;23.344;2023-07-31T07:57:17;95071.56;;;30.59;37.89
64668;BME280;51077;42.716;23.344;2023-07-31T07:59:42;95074.31;;;30.75;37.55
64668;BME280;51077;42.716;23.344;2023-07-31T08:02:08;95074.78;;;30.89;37.46
64668;BME280;51077;42.716;23.344;2023-07-31T08:04:33;95071.13;;;31.07;37.02
64668;BME280;51077;42.716;23.344;2023-07-31T08:06:58;95078.66;;;31.20;36.24
64668;BME280;51077;42.716;23.344;2023-07-31T08:09:24;95068.47;;;31.33;35.75
64668;BME280;51077;42.716;23.344;2023-07-31T08:11:49;95063.41;;;31.51;35.57
64668;BME280;51077;42.716;23.344;2023-07-31T08:14:15;95069.59;;;31.67;35.33
64668;BME280;51077;42.716;23.344;2023-07-31T08:16:40;95060.75;;;31.79;34.83
64668;BME280;51077;42.716;23.344;2023-07-31T08:19:05;95069.41;;;31.83;34.96
64668;BME280;51077;42.716;23.344;2023-07-31T08:21:31;95072.50;;;31.91;34.43
64668;BME280;51077;42.716;23.344;2023-07-31T08:23:57;95070.03;;;32.03;34.44
64668;BME280;51077;42.716;23.344;2023-07-31T08:26:23;95071.78;;;32.15;33.84
64668;BME280;51077;42.716;23.344;2023-07-31T08:28:48;95069.97;;;32.25;34.22
64668;BME280;51077;42.716;23.344;2023-07-31T08:31:13;95069.19;;;32.23;34.15
64668;BME280;51077;42.716;23.344;2023-07-31T08:33:39;95076.16;;;32.18;33.64
64668;BME280;51077;42.716;23.344;2023-07-31T08:36:05;95072.69;;;32.21;33.84
64668;BME280;51077;42.716;23.344;2023-07-31T08:38:31;95070.19;;;32.34;33.36
64668;BME280;51077;42.716;23.344;2023-07-31T08:40:57;95072.81;;;32.49;33.15
64668;BME280;51077;42.716;23.344;2023-07-31T08:43:25;95061.34;;;32.71;33.05
64668;BME280;51077;42.716;23.344;2023-07-31T08:45:52;95066.00;;;32.87;32.77
64668;BME280;51077;42.716;23.344;2023-07-31T08:48:17;95065.75;;;33.02;32.00
64668;BME280;51077;42.716;23.344;2023-07-31T08:50:44;95060.59;;;33.23;32.04
64668;BME280;51077;42.716;23.344;2023-07-31T08:53:10;95052.53;;;33.41;31.37
64668;BME280;51077;42.716;23.344;2023-07-31T08:55:38;95067.22;;;33.60;31.21
64668;BME280;51077;42.716;23.344;2023-07-31T08:58:04;95054.00;;;33.72;30.81
64668;BME280;51077;42.716;23.344;2023-07-31T09:00:32;95055.59;;;33.80;30.60
64668;BME280;51077;42.716;23.344;2023-07-31T09:03:09;95056.09;;;33.70;30.97
64668;BME280;51077;42.716;23.344;2023-07-31T09:05:36;95068.81;;;33.67;30.72
64668;BME280;51077;42.716;23.344;2023-07-31T09:08:04;95051.63;;;33.63;30.88
64668;BME280;51077;42.716;23.344;2023-07-31T09:10:30;95048.19;;;33.68;30.86
64668;BME280;51077;42.716;23.344;2023-07-31T09:12:56;95059.09;;;33.78;30.50
64668;BME280;51077;42.716;23.344;2023-07-31T09:15:24;95062.03;;;33.82;30.62
64668;BME280;51077;42.716;23.344;2023-07-31T09:17:59;95050.75;;;33.86;30.13
64668;BME280;51077;42.716;23.344;2023-07-31T09:20:28;95050.63;;;33.80;30.25
64668;BME280;51077;42.716;23.344;2023-07-31T09:22:54;95049.31;;;33.85;30.48
64668;BME280;51077;42.716;23.344;2023-07-31T09:25:24;95035.88;;;33.90;30.23
64668;BME280;51077;42.716;23.344;2023-07-31T09:27:53;95040.22;;;33.93;30.22
64668;BME280;51077;42.716;23.344;2023-07-31T09:30:18;95032.44;;;33.95;29.82
64668;BME280;51077;42.716;23.344;2023-07-31T09:32:45;95026.31;;;34.07;29.87
64668;BME280;51077;42.716;23.344;2023-07-31T09:35:31;95027.66;;;34.04;30.22
64668;BME280;51077;42.716;23.344;2023-07-31T09:38:09;95030.16;;;34.20;29.87
64668;BME280;51077;42.716;23.344;2023-07-31T09:40:36;95022.59;;;34.33;29.56
64668;BME280;51077;42.716;23.344;2023-07-31T09:43:04;95021.22;;;34.36;29.50
64668;BME280;51077;42.716;23.344;2023-07-31T09:45:33;95018.94;;;34.28;29.51
64668;BME280;51077;42.716;23.344;2023-07-31T09:47:59;95025.69;;;34.45;29.18
64668;BME280;51077;42.716;23.344;2023-07-31T09:50:25;95019.72;;;34.33;29.34
64668;BME280;51077;42.716;23.344;2023-07-31T09:52:51;95020.25;;;34.23;29.85
64668;BME280;51077;42.716;23.344;2023-07-31T09:55:17;95006.94;;;33.99;29.68
64668;BME280;51077;42.716;23.344;2023-07-31T09:57:46;95017.34;;;33.89;29.96
64668;BME280;51077;42.716;23.344;2023-07-31T10:00:13;95009.56;;;33.91;29.84
64668;BME280;51077;42.716;23.344;2023-07-31T10:02:39;95015.25;;;33.91;29.71
64668;BME280;51077;42.716;23.344;2023-07-31T10:05:06;95010.75;;;34.12;29.66
64668;BME280;51077;42.716;23.344;2023-07-31T10:07:36;95012.28;;;34.51;28.80
64668;BME280;51077;42.716;23.344;2023-07-31T10:10:03;95005.09;;;34.85;28.64
64668;BME280;51077;42.716;23.344;2023-07-31T10:12:30;95003.66;;;35.24;28.29
64668;BME280;51077;42.716;23.344;2023-07-31T10:14:57;95008.56;;;35.62;27.49
64668;BME280;51077;42.716;23.344;2023-07-31T10:17:24;95011.34;;;35.58;27.33
64668;BME280;51077;42.716;23.344;2023-07-31T10:19:50;95008.84;;;35.36;27.58
64668;BME280;51077;42.716;23.344;2023-07-31T10:22:16;95011.56;;;35.30;27.68
64668;BME280;51077;42.716;23.344;2023-07-31T10:24:44;95009.09;;;35.50;27.26
64668;BME280;51077;42.716;23.344;2023-07-31T10:27:10;95007.44;;;35.39;27.17
64668;BME280;51077;42.716;23.344;2023-07-31T10:29:37;95005.63;;;35.58;27.21
64668;BME280;51077;42.716;23.344;2023-07-31T10:32:04;95003.16;;;35.84;26.84
64668;BME280;51077;42.716;23.344;2023-07-31T10:34:33;95000.53;;;35.98;26.38
64668;BME280;51077;42.716;23.344;2023-07-31T10:40:23;95000.63;;;36.63;25.46
64668;BME280;51077;42.716;23.344;2023-07-31T10:42:57;94992.56;;;37.10;24.52
64668;BME280;51077;42.716;23.344;2023-07-31T10:45:32;94995.63;;;37.37;24.31
64668;BME280;51077;42.716;23.344;2023-07-31T10:48:03;94995.69;;;37.43;24.44
64668;BME280;51077;42.716;23.344;2023-07-31T10:50:30;94993.72;;;37.64;24.40
64668;BME280;51077;42.716;23.344;2023-07-31T10:53:00;94992.47;;;37.89;23.79
64668;BME280;51077;42.716;23.344;2023-07-31T10:58:11;94996.25;;;38.31;23.35
64668;BME280;51077;42.716;23.344;2023-07-31T11:00:38;94980.53;;;38.36;23.51
64668;BME280;51077;42.716;23.344;2023-07-31T11:03:08;94972.72;;;38.63;23.12
64668;BME280;51077;42.716;23.344;2023-07-31T11:05:50;94971.38;;;38.86;22.56
64668;BME280;51077;42.716;23.344;2023-07-31T11:08:27;94964.22;;;39.02;22.17
64668;BME280;51077;42.716;23.344;2023-07-31T11:15:57;94962.81;;;39.31;22.17
64668;BME280;51077;42.716;23.344;2023-07-31T11:18:23;94957.75;;;39.11;22.15
64668;BME280;51077;42.716;23.344;2023-07-31T11:20:48;94952.78;;;39.28;21.97
64668;BME280;51077;42.716;23.344;2023-07-31T11:23:16;94963.50;;;39.52;21.72
64668;BME280;51077;42.716;23.344;2023-07-31T11:25:42;94964.22;;;39.63;21.64
64668;BME280;51077;42.716;23.344;2023-07-31T11:28:09;94961.34;;;39.61;21.41
64668;BME280;51077;42.716;23.344;2023-07-31T11:30:36;94959.91;;;39.76;21.20
64668;BME280;51077;42.716;23.344;2023-07-31T11:33:03;94963.44;;;39.95;20.94
64668;BME280;51077;42.716;23.344;2023-07-31T11:35:30;94959.16;;;39.92;20.92
64668;BME280;51077;42.716;23.344;2023-07-31T11:37:56;94951.22;;;39.96;21.04
64668;BME280;51077;42.716;23.344;2023-07-31T11:40:21;94959.84;;;40.15;20.88
64668;BME280;51077;42.716;23.344;2023-07-31T11:42:47;94962.72;;;40.11;20.61
64668;BME280;51077;42.716;23.344;2023-07-31T11:45:12;94949.00;;;40.32;20.41
64668;BME280;51077;42.716;23.344;2023-07-31T11:47:38;94944.03;;;40.10;20.86
64668;BME280;51077;42.716;23.344;2023-07-31T11:50:05;94944.09;;;39.65;21.08
64668;BME280;51077;42.716;23.344;2023-07-31T11:52:35;94947.00;;;39.57;21.03
64668;BME280;51077;42.716;23.344;2023-07-31T11:55:02;94939.81;;;39.58;21.23
64668;BME280;51077;42.716;23.344;2023-07-31T11:57:28;94949.16;;;39.44;21.44
64668;BME280;51077;42.716;23.344;2023-07-31T11:59:54;94947.00;;;39.53;21.25
64668;BME280;51077;42.716;23.344;2023-07-31T12:02:20;94948.44;;;39.54;21.15
64668;BME280;51077;42.716;23.344;2023-07-31T12:04:47;94941.25;;;39.55;21.21
64668;BME280;51077;42.716;23.344;2023-07-31T12:07:12;94944.84;;;39.72;20.77
64668;BME280;51077;42.716;23.344;2023-07-31T12:09:38;94938.38;;;39.73;20.88
64668;BME280;51077;42.716;23.344;2023-07-31T12:12:08;94929.69;;;39.87;20.67
64668;BME280;51077;42.716;23.344;2023-07-31T12:14:34;94928.22;;;39.96;20.59
64668;BME280;51077;42.716;23.344;2023-07-31T12:17:04;94926.06;;;40.09;20.68
64668;BME280;51077;42.716;23.344;2023-07-31T12:19:32;94926.78;;;40.12;20.70
64668;BME280;51077;42.716;23.344;2023-07-31T12:22:01;94918.16;;;40.04;20.61
64668;BME280;51077;42.716;23.344;2023-07-31T12:24:26;94926.81;;;40.02;20.75
64668;BME280;51077;42.716;23.344;2023-07-31T12:26:52;94921.09;;;39.89;20.75
64668;BME280;51077;42.716;23.344;2023-07-31T12:29:18;94918.22;;;39.87;20.77
64668;BME280;51077;42.716;23.344;2023-07-31T12:31:43;94921.13;;;39.75;21.23
64668;BME280;51077;42.716;23.344;2023-07-31T12:34:16;94915.38;;;39.57;20.96
64668;BME280;51077;42.716;23.344;2023-07-31T12:36:43;94916.88;;;39.31;21.35
64668;BME280;51077;42.716;23.344;2023-07-31T12:39:09;94914.00;;;39.03;21.80
64668;BME280;51077;42.716;23.344;2023-07-31T12:41:34;94914.69;;;38.79;21.92
64668;BME280;51077;42.716;23.344;2023-07-31T12:43:59;94907.47;;;38.65;21.82
64668;BME280;51077;42.716;23.344;2023-07-31T12:46:25;94917.47;;;38.32;22.45
64668;BME280;51077;42.716;23.344;2023-07-31T12:48:50;94910.13;;;37.98;22.66
64668;BME280;51077;42.716;23.344;2023-07-31T12:51:15;94913.50;;;37.60;23.52
64668;BME280;51077;42.716;23.344;2023-07-31T12:53:41;94905.47;;;37.38;23.53
64668;BME280;51077;42.716;23.344;2023-07-31T12:56:06;94902.94;;;36.91;24.04
64668;BME280;51077;42.716;23.344;2023-07-31T12:58:31;94899.88;;;36.67;24.46
64668;BME280;51077;42.716;23.344;2023-07-31T13:00:57;94897.97;;;36.92;23.84
64668;BME280;51077;42.716;23.344;2023-07-31T13:03:22;94891.78;;;37.26;23.35